sensor_id;sensor_type;location;lat;lon;timestamp;pressure;altitude;pressure_sealevel;temperature
62930;BMP280;49036;42.782;23.108;2023-02-13T00:01:30;95629.09;;;-2.91
62930;BMP280;49036;42.782;23.108;2023-02-13T00:03:56;95632.44;;;-2.86
62930;BMP280;49036;42.782;23.108;2023-02-13T00:06:22;95626.53;;;-2.85
62930;BMP280;49036;42.782;23.108;2023-02-13T00:08:47;95625.31;;;-2.93
62930;BMP280;49036;42.782;23.108;2023-02-13T00:11:13;95623.34;;;-2.93
62930;BMP280;49036;42.782;23.108;2023-02-13T00:13:39;95624.53;;;-2.94
62930;BMP280;49036;42.782;23.108;2023-02-13T00:16:05;95639.03;;;-2.88
62930;BMP280;49036;42.782;23.108;2023-02-13T00:18:37;95635.91;;;-2.86
62930;BMP280;49036;42.782;23.108;2023-02-13T00:21:09;95631.22;;;-2.85
62930;BMP280;49036;42.782;23.108;2023-02-13T00:23:36;95633.59;;;-2.88
62930;BMP280;49036;42.782;23.108;2023-02-13T00:26:07;95635.28;;;-2.81
62930;BMP280;49036;42.782;23.108;2023-02-13T00:28:34;95633.63;;;-2.69
62930;BMP280;49036;42.782;23.108;2023-02-13T00:31:08;95633.31;;;-2.62
62930;BMP280;49036;42.782;23.108;2023-02-13T00:33:34;95631.22;;;-2.67
62930;BMP280;49036;42.782;23.108;2023-02-13T00:36:11;95635.13;;;-2.59
62930;BMP280;49036;42.782;23.108;2023-02-13T00:38:38;95631.06;;;-2.54
62930;BMP280;49036;42.782;23.108;2023-02-13T00:41:04;95639.63;;;-2.47
62930;BMP280;49036;42.782;23.108;2023-02-13T00:43:31;95633.44;;;-2.47
62930;BMP280;49036;42.782;23.108;2023-02-13T00:45:57;95637.34;;;-2.48
62930;BMP280;49036;42.782;23.108;2023-02-13T00:48:23;95633.88;;;-2.49
62930;BMP280;49036;42.782;23.108;2023-02-13T00:50:49;95638.13;;;-2.48
62930;BMP280;49036;42.782;23.108;2023-02-13T00:53:17;95645.50;;;-2.48
62930;BMP280;49036;42.782;23.108;2023-02-13T00:55:43;95648.88;;;-2.53
62930;BMP280;49036;42.782;23.108;2023-02-13T00:58:08;95651.56;;;-2.63
62930;BMP280;49036;42.782;23.108;2023-02-13T01:00:34;95660.66;;;-2.66
62930;BMP280;49036;42.782;23.108;2023-02-13T01:03:00;95651.75;;;-2.66
62930;BMP280;49036;42.782;23.108;2023-02-13T01:05:26;95658.81;;;-2.69
62930;BMP280;49036;42.782;23.108;2023-02-13T01:07:52;95654.16;;;-2.77
62930;BMP280;49036;42.782;23.108;2023-02-13T01:10:18;95653.38;;;-2.87
62930;BMP280;49036;42.782;23.108;2023-02-13T01:12:44;95646.25;;;-2.94
62930;BMP280;49036;42.782;23.108;2023-02-13T01:15:10;95642.50;;;-2.96
62930;BMP280;49036;42.782;23.108;2023-02-13T01:17:36;95647.81;;;-2.93
62930;BMP280;49036;42.782;23.108;2023-02-13T01:20:08;95660.75;;;-2.88
62930;BMP280;49036;42.782;23.108;2023-02-13T01:22:34;95657.63;;;-2.86
62930;BMP280;49036;42.782;23.108;2023-02-13T01:25:00;95647.94;;;-2.96
62930;BMP280;49036;42.782;23.108;2023-02-13T01:27:28;95646.72;;;-3.04
62930;BMP280;49036;42.782;23.108;2023-02-13T01:29:54;95647.94;;;-3.05
62930;BMP280;49036;42.782;23.108;2023-02-13T01:32:20;95647.19;;;-3.06
62930;BMP280;49036;42.782;23.108;2023-02-13T01:34:46;95647.94;;;-2.96
62930;BMP280;49036;42.782;23.108;2023-02-13T01:37:13;95642.34;;;-3.02
62930;BMP280;49036;42.782;23.108;2023-02-13T01:39:38;95644.00;;;-3.13
62930;BMP280;49036;42.782;23.108;2023-02-13T01:42:09;95659.25;;;-3.16
62930;BMP280;49036;42.782;23.108;2023-02-13T01:47:14;95665.13;;;-3.18
62930;BMP280;49036;42.782;23.108;2023-02-13T01:49:43;95656.22;;;-3.18
62930;BMP280;49036;42.782;23.108;2023-02-13T01:52:10;95665.13;;;-3.18
62930;BMP280;49036;42.782;23.108;2023-02-13T01:54:36;95668.75;;;-3.11
62930;BMP280;49036;42.782;23.108;2023-02-13T01:57:15;95669.50;;;-3.02
62930;BMP280;49036;42.782;23.108;2023-02-13T01:59:52;95662.28;;;-3.05
62930;BMP280;49036;42.782;23.108;2023-02-13T02:02:20;95671.19;;;-3.04
62930;BMP280;49036;42.782;23.108;2023-02-13T02:04:47;95659.09;;;-3.03
62930;BMP280;49036;42.782;23.108;2023-02-13T02:07:18;95669.06;;;-3.00
62930;BMP280;49036;42.782;23.108;2023-02-13T02:09:44;95665.13;;;-3.08
62930;BMP280;49036;42.782;23.108;2023-02-13T02:12:23;95660.75;;;-3.24
62930;BMP280;49036;42.782;23.108;2023-02-13T02:14:52;95662.06;;;-3.38
62930;BMP280;49036;42.782;23.108;2023-02-13T02:17:19;95664.25;;;-3.64
62930;BMP280;49036;42.782;23.108;2023-02-13T02:22:50;95669.31;;;-3.97
62930;BMP280;49036;42.782;23.108;2023-02-13T02:28:31;95674.91;;;-4.44
62930;BMP280;49036;42.782;23.108;2023-02-13T02:45:51;95685.63;;;-4.76
62930;BMP280;49036;42.782;23.108;2023-02-13T02:48:48;95697.53;;;-4.38
62930;BMP280;49036;42.782;23.108;2023-02-13T02:51:41;95693.06;;;-4.10
62930;BMP280;49036;42.782;23.108;2023-02-13T02:54:31;95698.84;;;-3.99
62930;BMP280;49036;42.782;23.108;2023-02-13T02:57:30;95698.59;;;-3.92
62930;BMP280;49036;42.782;23.108;2023-02-13T03:00:16;95697.34;;;-4.00
62930;BMP280;49036;42.782;23.108;2023-02-13T03:03:04;95686.19;;;-4.02
62930;BMP280;49036;42.782;23.108;2023-02-13T03:05:50;95684.31;;;-4.14
62930;BMP280;49036;42.782;23.108;2023-02-13T03:08:36;95692.50;;;-4.27
62930;BMP280;49036;42.782;23.108;2023-02-13T03:11:21;95698.91;;;-4.34
62930;BMP280;49036;42.782;23.108;2023-02-13T03:14:06;95690.59;;;-4.39
62930;BMP280;49036;42.782;23.108;2023-02-13T03:16:33;95695.88;;;-4.36
62930;BMP280;49036;42.782;23.108;2023-02-13T03:19:33;95695.06;;;-4.45
62930;BMP280;49036;42.782;23.108;2023-02-13T03:33:57;95703.59;;;-5.16
62930;BMP280;49036;42.782;23.108;2023-02-13T03:42:45;95701.09;;;-5.49
62930;BMP280;49036;42.782;23.108;2023-02-13T03:45:26;95696.25;;;-5.54
62930;BMP280;49036;42.782;23.108;2023-02-13T03:48:13;95696.44;;;-5.61
62930;BMP280;49036;42.782;23.108;2023-02-13T03:51:00;95697.28;;;-5.64
62930;BMP280;49036;42.782;23.108;2023-02-13T03:53:30;95688.53;;;-5.68
62930;BMP280;49036;42.782;23.108;2023-02-13T03:56:01;95697.84;;;-5.69
62930;BMP280;49036;42.782;23.108;2023-02-13T03:58:49;95700.34;;;-5.75
62930;BMP280;49036;42.782;23.108;2023-02-13T04:01:36;95701.09;;;-5.74
62930;BMP280;49036;42.782;23.108;2023-02-13T04:04:12;95702.78;;;-5.81
62930;BMP280;49036;42.782;23.108;2023-02-13T04:09:54;95714.53;;;-6.00
62930;BMP280;49036;42.782;23.108;2023-02-13T04:15:15;95726.09;;;-5.99
62930;BMP280;49036;42.782;23.108;2023-02-13T04:17:45;95716.53;;;-5.88
62930;BMP280;49036;42.782;23.108;2023-02-13T04:20:12;95716.75;;;-5.82
62930;BMP280;49036;42.782;23.108;2023-02-13T04:22:46;95711.66;;;-5.80
62930;BMP280;49036;42.782;23.108;2023-02-13T04:25:13;95708.94;;;-5.80
62930;BMP280;49036;42.782;23.108;2023-02-13T04:27:39;95709.72;;;-5.80
62930;BMP280;49036;42.782;23.108;2023-02-13T04:30:06;95712.09;;;-5.82
62930;BMP280;49036;42.782;23.108;2023-02-13T04:32:31;95707.97;;;-5.86
62930;BMP280;49036;42.782;23.108;2023-02-13T04:34:57;95705.28;;;-5.86
62930;BMP280;49036;42.782;23.108;2023-02-13T04:37:22;95704.53;;;-5.87
62930;BMP280;49036;42.782;23.108;2023-02-13T04:39:48;95699.88;;;-5.86
62930;BMP280;49036;42.782;23.108;2023-02-13T04:42:14;95702.47;;;-5.83
62930;BMP280;49036;42.782;23.108;2023-02-13T04:44:39;95701.28;;;-5.82
62930;BMP280;49036;42.782;23.108;2023-02-13T04:47:05;95697.72;;;-5.66
62930;BMP280;49036;42.782;23.108;2023-02-13T04:49:30;95701.34;;;-5.56
62930;BMP280;49036;42.782;23.108;2023-02-13T04:51:56;95697.75;;;-5.53
62930;BMP280;49036;42.782;23.108;2023-02-13T04:54:21;95703.16;;;-5.53
62930;BMP280;49036;42.782;23.108;2023-02-13T04:56:46;95709.19;;;-5.62
62930;BMP280;49036;42.782;23.108;2023-02-13T04:59:12;95707.34;;;-5.65
62930;BMP280;49036;42.782;23.108;2023-02-13T05:01:38;95709.44;;;-5.69
62930;BMP280;49036;42.782;23.108;2023-02-13T05:04:03;95720.88;;;-5.65
62930;BMP280;49036;42.782;23.108;2023-02-13T05:06:29;95718.28;;;-5.68
62930;BMP280;49036;42.782;23.108;2023-02-13T05:08:54;95722.72;;;-5.74
62930;BMP280;49036;42.782;23.108;2023-02-13T05:11:19;95720.53;;;-5.80
62930;BMP280;49036;42.782;23.108;2023-02-13T05:13:45;95717.81;;;-5.80
62930;BMP280;49036;42.782;23.108;2023-02-13T05:16:10;95715.78;;;-5.88
62930;BMP280;49036;42.782;23.108;2023-02-13T05:18:36;95726.41;;;-5.97
62930;BMP280;49036;42.782;23.108;2023-02-13T05:21:01;95737.34;;;-6.01
62930;BMP280;49036;42.782;23.108;2023-02-13T05:23:45;95736.38;;;-6.07
62930;BMP280;49036;42.782;23.108;2023-02-13T05:26:11;95738.16;;;-6.17
62930;BMP280;49036;42.782;23.108;2023-02-13T05:28:36;95733.00;;;-6.11
62930;BMP280;49036;42.782;23.108;2023-02-13T05:31:20;95738.19;;;-6.04
62930;BMP280;49036;42.782;23.108;2023-02-13T05:33:46;95744.72;;;-6.02
62930;BMP280;49036;42.782;23.108;2023-02-13T05:36:11;95736.03;;;-5.96
62930;BMP280;49036;42.782;23.108;2023-02-13T05:38:36;95741.38;;;-5.93
62930;BMP280;49036;42.782;23.108;2023-02-13T05:41:02;95729.69;;;-5.77
62930;BMP280;49036;42.782;23.108;2023-02-13T05:43:28;95751.34;;;-5.77
62930;BMP280;49036;42.782;23.108;2023-02-13T05:46:05;95749.63;;;-5.71
62930;BMP280;49036;42.782;23.108;2023-02-13T05:48:31;95751.06;;;-5.66
62930;BMP280;49036;42.782;23.108;2023-02-13T05:50:57;95749.66;;;-5.45
62930;BMP280;49036;42.782;23.108;2023-02-13T05:53:23;95750.88;;;-5.46
62930;BMP280;49036;42.782;23.108;2023-02-13T05:55:48;95749.06;;;-5.37
62930;BMP280;49036;42.782;23.108;2023-02-13T05:58:17;95750.78;;;-5.30
62930;BMP280;49036;42.782;23.108;2023-02-13T06:00:43;95745.38;;;-5.17
62930;BMP280;49036;42.782;23.108;2023-02-13T06:03:08;95736.59;;;-4.96
62930;BMP280;49036;42.782;23.108;2023-02-13T06:05:34;95747.81;;;-4.72
62930;BMP280;49036;42.782;23.108;2023-02-13T06:07:59;95753.31;;;-4.63
62930;BMP280;49036;42.782;23.108;2023-02-13T06:10:25;95760.22;;;-4.49
62930;BMP280;49036;42.782;23.108;2023-02-13T06:12:50;95755.13;;;-4.25
62930;BMP280;49036;42.782;23.108;2023-02-13T06:15:16;95753.03;;;-4.08
62930;BMP280;49036;42.782;23.108;2023-02-13T06:17:41;95748.34;;;-3.86
62930;BMP280;49036;42.782;23.108;2023-02-13T06:20:07;95753.22;;;-3.50
62930;BMP280;49036;42.782;23.108;2023-02-13T06:22:33;95751.69;;;-3.20
62930;BMP280;49036;42.782;23.108;2023-02-13T06:24:59;95752.47;;;-3.01
62930;BMP280;49036;42.782;23.108;2023-02-13T06:27:24;95756.81;;;-2.72
62930;BMP280;49036;42.782;23.108;2023-02-13T06:29:49;95757.13;;;-2.52
62930;BMP280;49036;42.782;23.108;2023-02-13T06:32:15;95760.31;;;-2.35
62930;BMP280;49036;42.782;23.108;2023-02-13T06:34:40;95765.44;;;-2.19
62930;BMP280;49036;42.782;23.108;2023-02-13T06:37:06;95760.13;;;-2.04
62930;BMP280;49036;42.782;23.108;2023-02-13T06:39:31;95756.53;;;-2.10
62930;BMP280;49036;42.782;23.108;2023-02-13T06:41:57;95761.66;;;-1.94
62930;BMP280;49036;42.782;23.108;2023-02-13T06:44:22;95754.09;;;-1.90
62930;BMP280;49036;42.782;23.108;2023-02-13T06:46:48;95758.88;;;-1.75
62930;BMP280;49036;42.782;23.108;2023-02-13T06:49:13;95758.84;;;-1.57
62930;BMP280;49036;42.782;23.108;2023-02-13T06:51:39;95750.16;;;-1.46
62930;BMP280;49036;42.782;23.108;2023-02-13T06:54:04;95760.13;;;-1.25
62930;BMP280;49036;42.782;23.108;2023-02-13T06:56:30;95756.94;;;-1.23
62930;BMP280;49036;42.782;23.108;2023-02-13T06:58:57;95755.78;;;-1.08
62930;BMP280;49036;42.782;23.108;2023-02-13T07:01:22;95756.84;;;-1.05
62930;BMP280;49036;42.782;23.108;2023-02-13T07:03:48;95757.59;;;-1.05
62930;BMP280;49036;42.782;23.108;2023-02-13T07:06:18;95758.28;;;-0.95
62930;BMP280;49036;42.782;23.108;2023-02-13T07:08:43;95766.88;;;-0.87
62930;BMP280;49036;42.782;23.108;2023-02-13T07:11:18;95759.13;;;-0.80
62930;BMP280;49036;42.782;23.108;2023-02-13T07:13:44;95751.63;;;-0.70
62930;BMP280;49036;42.782;23.108;2023-02-13T07:16:10;95756.53;;;-0.74
62930;BMP280;49036;42.782;23.108;2023-02-13T07:18:35;95753.00;;;-0.75
62930;BMP280;49036;42.782;23.108;2023-02-13T07:21:01;95761.50;;;-0.73
62930;BMP280;49036;42.782;23.108;2023-02-13T07:23:26;95754.97;;;-0.75
62930;BMP280;49036;42.782;23.108;2023-02-13T07:25:52;95760.56;;;-0.69
62930;BMP280;49036;42.782;23.108;2023-02-13T07:28:17;95758.66;;;-0.63
62930;BMP280;49036;42.782;23.108;2023-02-13T07:30:43;95762.47;;;-0.61
62930;BMP280;49036;42.782;23.108;2023-02-13T07:33:08;95761.59;;;-0.67
62930;BMP280;49036;42.782;23.108;2023-02-13T07:35:34;95768.78;;;-0.55
62930;BMP280;49036;42.782;23.108;2023-02-13T07:38:02;95770.22;;;-0.45
62930;BMP280;49036;42.782;23.108;2023-02-13T07:40:28;95765.16;;;-0.37
62930;BMP280;49036;42.782;23.108;2023-02-13T07:42:54;95755.97;;;-0.25
62930;BMP280;49036;42.782;23.108;2023-02-13T07:45:19;95762.22;;;-0.09
62930;BMP280;49036;42.782;23.108;2023-02-13T07:47:45;95757.69;;;0.02
62930;BMP280;49036;42.782;23.108;2023-02-13T07:50:11;95761.28;;;0.08
62930;BMP280;49036;42.782;23.108;2023-02-13T07:52:37;95755.72;;;0.03
62930;BMP280;49036;42.782;23.108;2023-02-13T07:55:04;95763.91;;;0.03
62930;BMP280;49036;42.782;23.108;2023-02-13T07:57:30;95751.31;;;0.05
62930;BMP280;49036;42.782;23.108;2023-02-13T07:59:56;95761.75;;;0.22
62930;BMP280;49036;42.782;23.108;2023-02-13T08:02:21;95757.91;;;0.14
62930;BMP280;49036;42.782;23.108;2023-02-13T08:04:47;95770.69;;;0.37
62930;BMP280;49036;42.782;23.108;2023-02-13T08:07:14;95766.47;;;0.36
62930;BMP280;49036;42.782;23.108;2023-02-13T08:09:40;95761.47;;;0.20
62930;BMP280;49036;42.782;23.108;2023-02-13T08:12:24;95768.25;;;0.09
62930;BMP280;49036;42.782;23.108;2023-02-13T08:14:49;95763.16;;;0.02
62930;BMP280;49036;42.782;23.108;2023-02-13T08:17:15;95761.19;;;0.18
62930;BMP280;49036;42.782;23.108;2023-02-13T08:19:40;95757.78;;;0.08
62930;BMP280;49036;42.782;23.108;2023-02-13T08:22:06;95762.44;;;0.17
62930;BMP280;49036;42.782;23.108;2023-02-13T08:24:31;95756.72;;;0.35
62930;BMP280;49036;42.782;23.108;2023-02-13T08:26:57;95756.69;;;0.29
62930;BMP280;49036;42.782;23.108;2023-02-13T08:29:23;95764.22;;;0.20
62930;BMP280;49036;42.782;23.108;2023-02-13T08:31:48;95761.69;;;0.31
62930;BMP280;49036;42.782;23.108;2023-02-13T08:34:13;95767.13;;;0.31
62930;BMP280;49036;42.782;23.108;2023-02-13T08:36:39;95764.09;;;0.44
62930;BMP280;49036;42.782;23.108;2023-02-13T08:39:04;95762.00;;;0.53
62930;BMP280;49036;42.782;23.108;2023-02-13T08:41:30;95764.44;;;0.81
62930;BMP280;49036;42.782;23.108;2023-02-13T08:43:55;95760.97;;;0.51
62930;BMP280;49036;42.782;23.108;2023-02-13T08:46:21;95754.66;;;0.59
62930;BMP280;49036;42.782;23.108;2023-02-13T08:48:47;95750.91;;;0.57
62930;BMP280;49036;42.782;23.108;2023-02-13T08:51:13;95750.88;;;1.07
62930;BMP280;49036;42.782;23.108;2023-02-13T08:53:39;95755.41;;;0.75
62930;BMP280;49036;42.782;23.108;2023-02-13T08:56:05;95751.22;;;0.79
62930;BMP280;49036;42.782;23.108;2023-02-13T08:58:31;95749.53;;;0.82
62930;BMP280;49036;42.782;23.108;2023-02-13T09:00:56;95746.69;;;1.11
62930;BMP280;49036;42.782;23.108;2023-02-13T09:03:22;95761.56;;;1.31
62930;BMP280;49036;42.782;23.108;2023-02-13T09:05:48;95752.97;;;1.38
62930;BMP280;49036;42.782;23.108;2023-02-13T09:08:13;95750.31;;;1.43
62930;BMP280;49036;42.782;23.108;2023-02-13T09:10:40;95760.41;;;1.37
62930;BMP280;49036;42.782;23.108;2023-02-13T09:13:08;95755.50;;;1.41
62930;BMP280;49036;42.782;23.108;2023-02-13T09:15:37;95766.38;;;1.36
62930;BMP280;49036;42.782;23.108;2023-02-13T09:18:02;95761.16;;;1.79
62930;BMP280;49036;42.782;23.108;2023-02-13T09:20:28;95752.44;;;1.80
62930;BMP280;49036;42.782;23.108;2023-02-13T09:22:54;95757.84;;;1.95
62930;BMP280;49036;42.782;23.108;2023-02-13T09:25:19;95761.84;;;1.73
62930;BMP280;49036;42.782;23.108;2023-02-13T09:27:45;95758.13;;;2.02
62930;BMP280;49036;42.782;23.108;2023-02-13T09:30:12;95764.53;;;1.94
62930;BMP280;49036;42.782;23.108;2023-02-13T09:32:46;95767.38;;;2.05
62930;BMP280;49036;42.782;23.108;2023-02-13T09:35:12;95754.56;;;2.17
62930;BMP280;49036;42.782;23.108;2023-02-13T09:37:39;95758.91;;;1.77
62930;BMP280;49036;42.782;23.108;2023-02-13T09:40:12;95756.63;;;1.29
62930;BMP280;49036;42.782;23.108;2023-02-13T09:42:41;95757.19;;;0.98
62930;BMP280;49036;42.782;23.108;2023-02-13T09:45:10;95750.19;;;1.32
62930;BMP280;49036;42.782;23.108;2023-02-13T09:47:40;95744.72;;;1.79
62930;BMP280;49036;42.782;23.108;2023-02-13T09:52:37;95735.84;;;2.15
62930;BMP280;49036;42.782;23.108;2023-02-13T09:55:13;95725.44;;;2.19
62930;BMP280;49036;42.782;23.108;2023-02-13T09:57:45;95715.13;;;2.40
62930;BMP280;49036;42.782;23.108;2023-02-13T10:03:19;95710.00;;;2.59
62930;BMP280;49036;42.782;23.108;2023-02-13T10:14:00;95692.63;;;3.16
62930;BMP280;49036;42.782;23.108;2023-02-13T10:19:28;95682.44;;;3.33
62930;BMP280;49036;42.782;23.108;2023-02-13T10:22:20;95688.91;;;3.30
62930;BMP280;49036;42.782;23.108;2023-02-13T10:27:31;95671.97;;;3.32
62930;BMP280;49036;42.782;23.108;2023-02-13T10:30:30;95667.00;;;3.47
62930;BMP280;49036;42.782;23.108;2023-02-13T10:35:48;95658.03;;;3.80
62930;BMP280;49036;42.782;23.108;2023-02-13T10:38:17;95654.06;;;3.92
62930;BMP280;49036;42.782;23.108;2023-02-13T10:43:36;95655.53;;;3.82
62930;BMP280;49036;42.782;23.108;2023-02-13T10:46:36;95644.03;;;3.95
62930;BMP280;49036;42.782;23.108;2023-02-13T10:52:09;95639.28;;;4.18
62930;BMP280;49036;42.782;23.108;2023-02-13T11:02:58;95625.00;;;5.05
62930;BMP280;49036;42.782;23.108;2023-02-13T11:05:30;95621.34;;;4.86
62930;BMP280;49036;42.782;23.108;2023-02-13T11:07:56;95615.19;;;5.15
62930;BMP280;49036;42.782;23.108;2023-02-13T11:10:24;95618.69;;;5.16
62930;BMP280;49036;42.782;23.108;2023-02-13T11:12:51;95619.25;;;5.03
62930;BMP280;49036;42.782;23.108;2023-02-13T11:15:28;95617.59;;;5.30
62930;BMP280;49036;42.782;23.108;2023-02-13T11:17:57;95616.28;;;5.01
62930;BMP280;49036;42.782;23.108;2023-02-13T11:20:37;95600.75;;;5.45
62930;BMP280;49036;42.782;23.108;2023-02-13T11:28:36;95588.53;;;5.95
62930;BMP280;49036;42.782;23.108;2023-02-13T11:31:11;95587.28;;;5.96
62930;BMP280;49036;42.782;23.108;2023-02-13T11:33:37;95586.16;;;5.80
62930;BMP280;49036;42.782;23.108;2023-02-13T11:36:14;95570.81;;;6.33
62930;BMP280;49036;42.782;23.108;2023-02-13T11:38:40;95573.09;;;6.10
62930;BMP280;49036;42.782;23.108;2023-02-13T11:41:13;95569.59;;;6.10
62930;BMP280;49036;42.782;23.108;2023-02-13T11:43:46;95557.88;;;6.47
62930;BMP280;49036;42.782;23.108;2023-02-13T11:46:23;95564.50;;;6.95
62930;BMP280;49036;42.782;23.108;2023-02-13T11:51:46;95556.97;;;6.39
62930;BMP280;49036;42.782;23.108;2023-02-13T11:54:35;95551.75;;;6.92
62930;BMP280;49036;42.782;23.108;2023-02-13T11:59:47;95535.72;;;7.68
62930;BMP280;49036;42.782;23.108;2023-02-13T12:02:29;95536.47;;;7.68
62930;BMP280;49036;42.782;23.108;2023-02-13T12:05:23;95535.94;;;7.56
62930;BMP280;49036;42.782;23.108;2023-02-13T12:07:50;95542.59;;;7.48
62930;BMP280;49036;42.782;23.108;2023-02-13T12:16:01;95541.25;;;6.34
62930;BMP280;49036;42.782;23.108;2023-02-13T12:18:35;95538.16;;;6.19
62930;BMP280;49036;42.782;23.108;2023-02-13T12:26:33;95523.94;;;5.66
62930;BMP280;49036;42.782;23.108;2023-02-13T12:53:30;95498.63;;;5.67
62930;BMP280;49036;42.782;23.108;2023-02-13T12:56:34;95497.13;;;5.42
62930;BMP280;49036;42.782;23.108;2023-02-13T13:07:08;95488.16;;;5.36
62930;BMP280;49036;42.782;23.108;2023-02-13T13:10:20;95485.59;;;5.43
62930;BMP280;49036;42.782;23.108;2023-02-13T13:16:05;95478.63;;;5.37
62930;BMP280;49036;42.782;23.108;2023-02-13T13:21:43;95475.66;;;5.35
62930;BMP280;49036;42.782;23.108;2023-02-13T13:24:32;95467.22;;;5.27
62930;BMP280;49036;42.782;23.108;2023-02-13T13:27:02;95470.75;;;5.22
62930;BMP280;49036;42.782;23.108;2023-02-13T13:32:07;95462.09;;;5.37
62930;BMP280;49036;42.782;23.108;2023-02-13T13:34:37;95472.47;;;5.31
62930;BMP280;49036;42.782;23.108;2023-02-13T13:42:23;95476.59;;;5.13
62930;BMP280;49036;42.782;23.108;2023-02-13T13:50:05;95455.50;;;5.21
62930;BMP280;49036;42.782;23.108;2023-02-13T13:52:38;95470.59;;;5.14
62930;BMP280;49036;42.782;23.108;2023-02-13T13:55:04;95456.06;;;5.14
62930;BMP280;49036;42.782;23.108;2023-02-13T14:02:44;95456.84;;;5.09
62930;BMP280;49036;42.782;23.108;2023-02-13T14:05:31;95458.97;;;4.91
62930;BMP280;49036;42.782;23.108;2023-02-13T14:08:02;95461.72;;;4.91
62930;BMP280;49036;42.782;23.108;2023-02-13T14:18:04;95449.78;;;4.89
62930;BMP280;49036;42.782;23.108;2023-02-13T14:31:37;95452.25;;;4.51
62930;BMP280;49036;42.782;23.108;2023-02-13T14:36:37;95449.88;;;4.37
62930;BMP280;49036;42.782;23.108;2023-02-13T14:39:29;95446.84;;;4.40
62930;BMP280;49036;42.782;23.108;2023-02-13T14:41:58;95448.03;;;4.45
62930;BMP280;49036;42.782;23.108;2023-02-13T14:47:02;95440.31;;;5.14
62930;BMP280;49036;42.782;23.108;2023-02-13T14:49:34;95455.81;;;4.82
62930;BMP280;49036;42.782;23.108;2023-02-13T14:52:04;95447.13;;;4.31
62930;BMP280;49036;42.782;23.108;2023-02-13T14:54:37;95448.78;;;3.98
62930;BMP280;49036;42.782;23.108;2023-02-13T14:57:16;95440.09;;;3.83
62930;BMP280;49036;42.782;23.108;2023-02-13T14:59:55;95438.16;;;3.72
62930;BMP280;49036;42.782;23.108;2023-02-13T15:02:32;95449.38;;;3.63
62930;BMP280;49036;42.782;23.108;2023-02-13T15:05:05;95442.41;;;3.57
62930;BMP280;49036;42.782;23.108;2023-02-13T15:07:34;95436.69;;;3.43
62930;BMP280;49036;42.782;23.108;2023-02-13T15:10:49;95438.47;;;3.35
62930;BMP280;49036;42.782;23.108;2023-02-13T15:12:56;95440.47;;;3.24
62930;BMP280;49036;42.782;23.108;2023-02-13T15:15:25;95436.75;;;3.15
62930;BMP280;49036;42.782;23.108;2023-02-13T15:18:03;95439.97;;;3.08
62930;BMP280;49036;42.782;23.108;2023-02-13T15:20:34;95439.47;;;3.04
62930;BMP280;49036;42.782;23.108;2023-02-13T15:23:01;95438.47;;;2.90
62930;BMP280;49036;42.782;23.108;2023-02-13T15:25:37;95429.75;;;2.75
62930;BMP280;49036;42.782;23.108;2023-02-13T15:28:14;95441.69;;;2.67
62930;BMP280;49036;42.782;23.108;2023-02-13T15:31:06;95437.94;;;2.47
62930;BMP280;49036;42.782;23.108;2023-02-13T15:33:45;95441.13;;;2.34
62930;BMP280;49036;42.782;23.108;2023-02-13T15:36:17;95440.84;;;2.21
62930;BMP280;49036;42.782;23.108;2023-02-13T15:38:43;95445.53;;;2.15
62930;BMP280;49036;42.782;23.108;2023-02-13T15:41:12;95443.50;;;2.04
62930;BMP280;49036;42.782;23.108;2023-02-13T15:43:41;95449.16;;;1.95
62930;BMP280;49036;42.782;23.108;2023-02-13T15:46:31;95448.13;;;1.82
62930;BMP280;49036;42.782;23.108;2023-02-13T15:48:59;95455.25;;;1.62
62930;BMP280;49036;42.782;23.108;2023-02-13T15:51:29;95453.88;;;1.41
62930;BMP280;49036;42.782;23.108;2023-02-13T15:56:24;95464.25;;;1.05
62930;BMP280;49036;42.782;23.108;2023-02-13T15:58:51;95464.13;;;0.88
62930;BMP280;49036;42.782;23.108;2023-02-13T16:01:17;95468.63;;;0.65
62930;BMP280;49036;42.782;23.108;2023-02-13T16:03:47;95472.34;;;0.42
62930;BMP280;49036;42.782;23.108;2023-02-13T16:06:14;95473.59;;;0.21
62930;BMP280;49036;42.782;23.108;2023-02-13T16:08:44;95468.53;;;0.14
62930;BMP280;49036;42.782;23.108;2023-02-13T16:16:47;95467.28;;;-0.06
62930;BMP280;49036;42.782;23.108;2023-02-13T16:21:51;95474.13;;;-0.16
62930;BMP280;49036;42.782;23.108;2023-02-13T16:24:17;95480.41;;;-0.25
62930;BMP280;49036;42.782;23.108;2023-02-13T16:26:44;95484.19;;;-0.22
62930;BMP280;49036;42.782;23.108;2023-02-13T16:29:16;95482.88;;;-0.27
62930;BMP280;49036;42.782;23.108;2023-02-13T16:31:43;95493.13;;;-0.36
62930;BMP280;49036;42.782;23.108;2023-02-13T16:34:23;95492.22;;;-0.33
62930;BMP280;49036;42.782;23.108;2023-02-13T16:36:49;95480.25;;;-0.36
62930;BMP280;49036;42.782;23.108;2023-02-13T16:39:29;95486.66;;;-0.39
62930;BMP280;49036;42.782;23.108;2023-02-13T16:41:56;95478.13;;;-0.47
62930;BMP280;49036;42.782;23.108;2023-02-13T16:44:27;95478.97;;;-0.40
62930;BMP280;49036;42.782;23.108;2023-02-13T16:47:04;95469.34;;;-0.36
62930;BMP280;49036;42.782;23.108;2023-02-13T16:49:36;95472.44;;;-0.28
62930;BMP280;49036;42.782;23.108;2023-02-13T16:52:17;95479.97;;;-0.38
62930;BMP280;49036;42.782;23.108;2023-02-13T16:54:53;95470.53;;;-0.57
62930;BMP280;49036;42.782;23.108;2023-02-13T16:57:23;95473.22;;;-0.78
62930;BMP280;49036;42.782;23.108;2023-02-13T16:59:54;95474.72;;;-0.91
62930;BMP280;49036;42.782;23.108;2023-02-13T17:02:28;95481.78;;;-0.99
62930;BMP280;49036;42.782;23.108;2023-02-13T17:07:38;95481.19;;;-1.18
62930;BMP280;49036;42.782;23.108;2023-02-13T17:12:35;95483.84;;;-1.33
62930;BMP280;49036;42.782;23.108;2023-02-13T17:15:01;95477.47;;;-1.45
62930;BMP280;49036;42.782;23.108;2023-02-13T17:17:29;95475.66;;;-1.48
62930;BMP280;49036;42.782;23.108;2023-02-13T17:19:56;95477.25;;;-1.56
62930;BMP280;49036;42.782;23.108;2023-02-13T17:22:49;95470.06;;;-1.68
62930;BMP280;49036;42.782;23.108;2023-02-13T17:25:29;95482.34;;;-1.73
62930;BMP280;49036;42.782;23.108;2023-02-13T17:27:57;95485.00;;;-1.64
62930;BMP280;49036;42.782;23.108;2023-02-13T17:30:26;95481.34;;;-1.61
62930;BMP280;49036;42.782;23.108;2023-02-13T17:32:58;95477.25;;;-1.56
62930;BMP280;49036;42.782;23.108;2023-02-13T17:35:24;95472.25;;;-1.58
62930;BMP280;49036;42.782;23.108;2023-02-13T17:37:49;95474.28;;;-1.67
62930;BMP280;49036;42.782;23.108;2023-02-13T17:40:17;95481.06;;;-1.63
62930;BMP280;49036;42.782;23.108;2023-02-13T17:42:45;95471.97;;;-1.60